sensor_id;sensor_type;location;lat;lon;timestamp;temperature;humidity
7676;DHT22;3880;51.464;-2.566;2022-09-16T00:01:24;14.40;99.90
7676;DHT22;3880;51.464;-2.566;2022-09-16T00:03:54;14.30;99.90
7676;DHT22;3880;51.464;-2.566;2022-09-16T00:06:23;14.30;99.90
7676;DHT22;3880;51.464;-2.566;2022-09-16T00:08:53;14.30;99.90
7676;DHT22;3880;51.464;-2.566;2022-09-16T00:11:22;14.30;99.90
7676;DHT22;3880;51.464;-2.566;2022-09-16T00:13:56;14.30;99.90
7676;DHT22;3880;51.464;-2.566;2022-09-16T00:16:25;14.20;99.90
7676;DHT22;3880;51.464;-2.566;2022-09-16T00:18:55;14.10;99.90
7676;DHT22;3880;51.464;-2.566;2022-09-16T00:21:22;14.10;99.90
7676;DHT22;3880;51.464;-2.566;2022-09-16T00:23:56;14.20;99.90
7676;DHT22;3880;51.464;-2.566;2022-09-16T00:26:31;14.20;99.90
7676;DHT22;3880;51.464;-2.566;2022-09-16T00:29:11;14.20;99.90
7676;DHT22;3880;51.464;-2.566;2022-09-16T00:31:49;14.20;99.90
7676;DHT22;3880;51.464;-2.566;2022-09-16T00:34:25;14.20;99.90
7676;DHT22;3880;51.464;-2.566;2022-09-16T00:37:04;14.20;99.90
7676;DHT22;3880;51.464;-2.566;2022-09-16T00:39:37;14.20;99.90
7676;DHT22;3880;51.464;-2.566;2022-09-16T00:42:11;14.20;99.90
7676;DHT22;3880;51.464;-2.566;2022-09-16T00:44:58;14.20;99.90
7676;DHT22;3880;51.464;-2.566;2022-09-16T00:47:37;14.20;99.90
7676;DHT22;3880;51.464;-2.566;2022-09-16T00:50:25;14.10;99.90
7676;DHT22;3880;51.464;-2.566;2022-09-16T00:53:01;14.10;99.90
7676;DHT22;3880;51.464;-2.566;2022-09-16T00:55:36;14.00;99.90
7676;DHT22;3880;51.464;-2.566;2022-09-16T00:58:13;13.90;99.90
7676;DHT22;3880;51.464;-2.566;2022-09-16T01:00:50;13.90;99.90
7676;DHT22;3880;51.464;-2.566;2022-09-16T01:03:27;14.00;99.90
7676;DHT22;3880;51.464;-2.566;2022-09-16T01:06:05;13.90;99.90
7676;DHT22;3880;51.464;-2.566;2022-09-16T01:08:46;13.90;99.90
7676;DHT22;3880;51.464;-2.566;2022-09-16T01:11:20;13.90;99.90
7676;DHT22;3880;51.464;-2.566;2022-09-16T01:13:54;13.90;99.90
7676;DHT22;3880;51.464;-2.566;2022-09-16T01:16:52;13.70;99.90
7676;DHT22;3880;51.464;-2.566;2022-09-16T01:19:49;13.60;99.90
7676;DHT22;3880;51.464;-2.566;2022-09-16T01:22:43;13.60;99.90
7676;DHT22;3880;51.464;-2.566;2022-09-16T01:25:24;13.70;99.90
7676;DHT22;3880;51.464;-2.566;2022-09-16T01:28:28;13.70;99.90
7676;DHT22;3880;51.464;-2.566;2022-09-16T01:31:11;13.70;99.90
7676;DHT22;3880;51.464;-2.566;2022-09-16T01:33:45;13.70;99.90
7676;DHT22;3880;51.464;-2.566;2022-09-16T01:36:30;13.80;99.90
7676;DHT22;3880;51.464;-2.566;2022-09-16T01:39:16;13.80;99.90
7676;DHT22;3880;51.464;-2.566;2022-09-16T01:42:00;13.80;99.90
7676;DHT22;3880;51.464;-2.566;2022-09-16T01:44:36;13.80;99.90
7676;DHT22;3880;51.464;-2.566;2022-09-16T01:47:10;13.70;99.90
7676;DHT22;3880;51.464;-2.566;2022-09-16T01:49:45;13.70;99.90
7676;DHT22;3880;51.464;-2.566;2022-09-16T01:52:21;13.50;99.90
7676;DHT22;3880;51.464;-2.566;2022-09-16T01:54:55;13.50;99.90
7676;DHT22;3880;51.464;-2.566;2022-09-16T01:57:33;13.40;99.90
7676;DHT22;3880;51.464;-2.566;2022-09-16T02:00:13;13.40;99.90
7676;DHT22;3880;51.464;-2.566;2022-09-16T02:06:16;13.10;99.90
7676;DHT22;3880;51.464;-2.566;2022-09-16T02:08:53;13.20;99.90
7676;DHT22;3880;51.464;-2.566;2022-09-16T02:11:28;13.10;99.90
7676;DHT22;3880;51.464;-2.566;2022-09-16T02:14:04;13.00;99.90
7676;DHT22;3880;51.464;-2.566;2022-09-16T02:16:37;13.00;99.90
7676;DHT22;3880;51.464;-2.566;2022-09-16T02:19:11;13.10;99.90
7676;DHT22;3880;51.464;-2.566;2022-09-16T02:21:41;13.10;99.90
7676;DHT22;3880;51.464;-2.566;2022-09-16T02:24:12;13.00;99.90
7676;DHT22;3880;51.464;-2.566;2022-09-16T02:26:43;13.00;99.90
7676;DHT22;3880;51.464;-2.566;2022-09-16T02:29:16;13.10;99.90
7676;DHT22;3880;51.464;-2.566;2022-09-16T02:31:46;13.30;99.90
7676;DHT22;3880;51.464;-2.566;2022-09-16T02:34:18;13.30;99.90
7676;DHT22;3880;51.464;-2.566;2022-09-16T02:36:52;13.30;99.90
7676;DHT22;3880;51.464;-2.566;2022-09-16T02:39:26;13.30;99.90
7676;DHT22;3880;51.464;-2.566;2022-09-16T02:41:54;13.20;99.90
7676;DHT22;3880;51.464;-2.566;2022-09-16T02:44:23;13.30;99.90
7676;DHT22;3880;51.464;-2.566;2022-09-16T02:46:56;13.30;99.90
7676;DHT22;3880;51.464;-2.566;2022-09-16T02:49:33;13.50;99.90
7676;DHT22;3880;51.464;-2.566;2022-09-16T02:52:12;13.60;99.90
7676;DHT22;3880;51.464;-2.566;2022-09-16T02:54:46;13.60;99.90
7676;DHT22;3880;51.464;-2.566;2022-09-16T02:57:15;13.70;99.90
7676;DHT22;3880;51.464;-2.566;2022-09-16T02:59:43;13.70;99.90
7676;DHT22;3880;51.464;-2.566;2022-09-16T03:02:11;13.80;99.90
7676;DHT22;3880;51.464;-2.566;2022-09-16T03:04:40;13.70;99.90
7676;DHT22;3880;51.464;-2.566;2022-09-16T03:07:09;13.90;99.90
7676;DHT22;3880;51.464;-2.566;2022-09-16T03:09:41;14.10;99.90
7676;DHT22;3880;51.464;-2.566;2022-09-16T03:12:21;14.20;99.90
7676;DHT22;3880;51.464;-2.566;2022-09-16T03:15:32;14.30;99.90
7676;DHT22;3880;51.464;-2.566;2022-09-16T03:18:23;14.30;99.90
7676;DHT22;3880;51.464;-2.566;2022-09-16T03:20:59;14.40;99.90
7676;DHT22;3880;51.464;-2.566;2022-09-16T03:23:39;14.40;99.90
7676;DHT22;3880;51.464;-2.566;2022-09-16T03:26:15;14.00;99.90
7676;DHT22;3880;51.464;-2.566;2022-09-16T03:28:53;13.70;99.90
7676;DHT22;3880;51.464;-2.566;2022-09-16T03:31:29;13.50;99.90
7676;DHT22;3880;51.464;-2.566;2022-09-16T03:34:04;13.30;99.90
7676;DHT22;3880;51.464;-2.566;2022-09-16T03:36:42;13.30;99.90
7676;DHT22;3880;51.464;-2.566;2022-09-16T03:39:16;13.40;99.90
7676;DHT22;3880;51.464;-2.566;2022-09-16T03:41:49;13.50;99.90
7676;DHT22;3880;51.464;-2.566;2022-09-16T03:44:17;13.50;99.90
7676;DHT22;3880;51.464;-2.566;2022-09-16T03:46:45;13.60;99.90
7676;DHT22;3880;51.464;-2.566;2022-09-16T03:49:12;13.40;99.90
7676;DHT22;3880;51.464;-2.566;2022-09-16T03:51:41;13.50;99.90
7676;DHT22;3880;51.464;-2.566;2022-09-16T03:54:12;13.60;99.90
7676;DHT22;3880;51.464;-2.566;2022-09-16T03:56:43;13.60;99.90
7676;DHT22;3880;51.464;-2.566;2022-09-16T03:59:17;13.50;99.90
7676;DHT22;3880;51.464;-2.566;2022-09-16T04:01:50;13.70;99.90
7676;DHT22;3880;51.464;-2.566;2022-09-16T04:04:21;13.90;99.90
7676;DHT22;3880;51.464;-2.566;2022-09-16T04:06:53;13.90;99.90
7676;DHT22;3880;51.464;-2.566;2022-09-16T04:09:24;13.90;99.90
7676;DHT22;3880;51.464;-2.566;2022-09-16T04:11:51;13.80;99.90
7676;DHT22;3880;51.464;-2.566;2022-09-16T04:14:19;13.80;99.90
7676;DHT22;3880;51.464;-2.566;2022-09-16T04:16:49;13.80;99.90
7676;DHT22;3880;51.464;-2.566;2022-09-16T04:19:16;13.80;99.90
7676;DHT22;3880;51.464;-2.566;2022-09-16T04:21:43;13.70;99.90
7676;DHT22;3880;51.464;-2.566;2022-09-16T04:24:14;13.60;99.90
7676;DHT22;3880;51.464;-2.566;2022-09-16T04:26:42;13.50;99.90
7676;DHT22;3880;51.464;-2.566;2022-09-16T04:29:10;13.30;99.90
7676;DHT22;3880;51.464;-2.566;2022-09-16T04:31:41;13.40;99.90
7676;DHT22;3880;51.464;-2.566;2022-09-16T04:34:12;13.40;99.90
7676;DHT22;3880;51.464;-2.566;2022-09-16T04:36:39;13.30;99.90
7676;DHT22;3880;51.464;-2.566;2022-09-16T04:39:07;13.20;99.90
7676;DHT22;3880;51.464;-2.566;2022-09-16T04:41:35;13.00;99.90
7676;DHT22;3880;51.464;-2.566;2022-09-16T04:44:03;13.00;99.90
7676;DHT22;3880;51.464;-2.566;2022-09-16T04:46:32;12.80;99.90
7676;DHT22;3880;51.464;-2.566;2022-09-16T04:49:00;12.80;99.90
7676;DHT22;3880;51.464;-2.566;2022-09-16T04:51:28;12.70;99.90
7676;DHT22;3880;51.464;-2.566;2022-09-16T04:54:02;12.60;99.90
7676;DHT22;3880;51.464;-2.566;2022-09-16T04:56:38;12.50;99.90
7676;DHT22;3880;51.464;-2.566;2022-09-16T04:59:11;12.40;99.90
7676;DHT22;3880;51.464;-2.566;2022-09-16T05:01:52;12.20;99.90
7676;DHT22;3880;51.464;-2.566;2022-09-16T05:04:34;12.00;99.90
7676;DHT22;3880;51.464;-2.566;2022-09-16T05:07:11;11.80;99.90
7676;DHT22;3880;51.464;-2.566;2022-09-16T05:09:54;11.90;99.90
7676;DHT22;3880;51.464;-2.566;2022-09-16T05:12:33;12.00;99.90
7676;DHT22;3880;51.464;-2.566;2022-09-16T05:15:12;12.20;99.90
7676;DHT22;3880;51.464;-2.566;2022-09-16T05:17:48;12.20;99.90
7676;DHT22;3880;51.464;-2.566;2022-09-16T05:20:18;12.30;99.90
7676;DHT22;3880;51.464;-2.566;2022-09-16T05:22:59;12.20;99.90
7676;DHT22;3880;51.464;-2.566;2022-09-16T05:25:43;12.10;99.90
7676;DHT22;3880;51.464;-2.566;2022-09-16T05:28:31;12.10;99.90
7676;DHT22;3880;51.464;-2.566;2022-09-16T05:31:19;12.20;99.90
7676;DHT22;3880;51.464;-2.566;2022-09-16T05:34:11;12.20;99.90
7676;DHT22;3880;51.464;-2.566;2022-09-16T05:36:47;12.10;99.90
7676;DHT22;3880;51.464;-2.566;2022-09-16T05:39:27;12.20;99.90
7676;DHT22;3880;51.464;-2.566;2022-09-16T05:42:05;12.20;99.90
7676;DHT22;3880;51.464;-2.566;2022-09-16T05:44:38;12.20;99.90
7676;DHT22;3880;51.464;-2.566;2022-09-16T05:47:15;12.30;99.90
7676;DHT22;3880;51.464;-2.566;2022-09-16T05:49:54;12.30;99.90
7676;DHT22;3880;51.464;-2.566;2022-09-16T05:52:33;12.30;99.90
7676;DHT22;3880;51.464;-2.566;2022-09-16T05:55:22;12.30;99.90
7676;DHT22;3880;51.464;-2.566;2022-09-16T05:58:03;12.20;99.90
7676;DHT22;3880;51.464;-2.566;2022-09-16T06:00:38;12.30;99.90
7676;DHT22;3880;51.464;-2.566;2022-09-16T06:03:26;12.30;99.90
7676;DHT22;3880;51.464;-2.566;2022-09-16T06:06:28;12.40;99.90
7676;DHT22;3880;51.464;-2.566;2022-09-16T06:09:20;12.40;99.90
7676;DHT22;3880;51.464;-2.566;2022-09-16T06:11:59;12.40;99.90
7676;DHT22;3880;51.464;-2.566;2022-09-16T06:14:38;12.40;99.90
7676;DHT22;3880;51.464;-2.566;2022-09-16T06:17:31;12.50;99.90
7676;DHT22;3880;51.464;-2.566;2022-09-16T06:20:05;12.50;99.90
7676;DHT22;3880;51.464;-2.566;2022-09-16T06:22:39;12.50;99.90
7676;DHT22;3880;51.464;-2.566;2022-09-16T06:25:07;12.50;99.90
7676;DHT22;3880;51.464;-2.566;2022-09-16T06:27:34;12.50;99.90
7676;DHT22;3880;51.464;-2.566;2022-09-16T06:30:01;12.60;99.90
7676;DHT22;3880;51.464;-2.566;2022-09-16T06:32:39;12.70;99.90
7676;DHT22;3880;51.464;-2.566;2022-09-16T06:35:09;12.70;99.90
7676;DHT22;3880;51.464;-2.566;2022-09-16T06:37:38;12.70;99.90
7676;DHT22;3880;51.464;-2.566;2022-09-16T06:40:06;12.80;99.90
7676;DHT22;3880;51.464;-2.566;2022-09-16T06:42:34;12.80;99.90
7676;DHT22;3880;51.464;-2.566;2022-09-16T06:45:02;12.90;99.90
7676;DHT22;3880;51.464;-2.566;2022-09-16T06:47:33;12.90;99.90
7676;DHT22;3880;51.464;-2.566;2022-09-16T06:50:00;13.00;99.90
7676;DHT22;3880;51.464;-2.566;2022-09-16T06:52:29;13.00;99.90
7676;DHT22;3880;51.464;-2.566;2022-09-16T06:54:58;13.10;99.90
7676;DHT22;3880;51.464;-2.566;2022-09-16T06:57:25;13.10;99.90
7676;DHT22;3880;51.464;-2.566;2022-09-16T06:59:52;13.20;99.90
7676;DHT22;3880;51.464;-2.566;2022-09-16T07:02:19;13.00;99.90
7676;DHT22;3880;51.464;-2.566;2022-09-16T07:04:47;12.90;99.90
7676;DHT22;3880;51.464;-2.566;2022-09-16T07:07:15;12.90;99.90
7676;DHT22;3880;51.464;-2.566;2022-09-16T07:09:41;12.90;99.90
7676;DHT22;3880;51.464;-2.566;2022-09-16T07:12:08;12.90;99.90
7676;DHT22;3880;51.464;-2.566;2022-09-16T07:14:35;13.10;99.90
7676;DHT22;3880;51.464;-2.566;2022-09-16T07:17:02;13.20;99.90
7676;DHT22;3880;51.464;-2.566;2022-09-16T07:19:30;13.20;99.90
7676;DHT22;3880;51.464;-2.566;2022-09-16T07:21:58;13.10;99.90
7676;DHT22;3880;51.464;-2.566;2022-09-16T07:24:25;13.30;99.90
7676;DHT22;3880;51.464;-2.566;2022-09-16T07:26:52;13.30;99.90
7676;DHT22;3880;51.464;-2.566;2022-09-16T07:29:19;13.50;99.90
7676;DHT22;3880;51.464;-2.566;2022-09-16T07:31:46;13.50;99.90
7676;DHT22;3880;51.464;-2.566;2022-09-16T07:34:13;13.40;99.90
7676;DHT22;3880;51.464;-2.566;2022-09-16T07:36:42;13.20;99.90
7676;DHT22;3880;51.464;-2.566;2022-09-16T07:39:12;13.20;99.90
7676;DHT22;3880;51.464;-2.566;2022-09-16T07:41:41;13.10;99.90
7676;DHT22;3880;51.464;-2.566;2022-09-16T07:44:11;13.10;99.90
7676;DHT22;3880;51.464;-2.566;2022-09-16T07:46:38;13.20;99.90
7676;DHT22;3880;51.464;-2.566;2022-09-16T07:49:07;13.20;99.90
7676;DHT22;3880;51.464;-2.566;2022-09-16T07:51:35;13.20;99.90
7676;DHT22;3880;51.464;-2.566;2022-09-16T07:54:04;13.40;99.90
7676;DHT22;3880;51.464;-2.566;2022-09-16T07:56:34;13.40;99.90
7676;DHT22;3880;51.464;-2.566;2022-09-16T07:59:04;13.50;99.90
7676;DHT22;3880;51.464;-2.566;2022-09-16T08:01:34;13.60;99.90
7676;DHT22;3880;51.464;-2.566;2022-09-16T08:04:01;13.60;99.90
7676;DHT22;3880;51.464;-2.566;2022-09-16T08:06:30;13.70;99.90
7676;DHT22;3880;51.464;-2.566;2022-09-16T08:08:58;13.80;99.90
7676;DHT22;3880;51.464;-2.566;2022-09-16T08:11:27;14.00;99.90
7676;DHT22;3880;51.464;-2.566;2022-09-16T08:13:56;14.10;99.90
7676;DHT22;3880;51.464;-2.566;2022-09-16T08:16:24;14.00;99.90
7676;DHT22;3880;51.464;-2.566;2022-09-16T08:18:54;14.00;99.90
7676;DHT22;3880;51.464;-2.566;2022-09-16T08:21:23;14.00;99.90
7676;DHT22;3880;51.464;-2.566;2022-09-16T08:23:50;14.00;99.90
7676;DHT22;3880;51.464;-2.566;2022-09-16T08:26:18;14.20;99.90
7676;DHT22;3880;51.464;-2.566;2022-09-16T08:28:46;14.40;99.90
7676;DHT22;3880;51.464;-2.566;2022-09-16T08:31:16;14.50;99.90
7676;DHT22;3880;51.464;-2.566;2022-09-16T08:33:44;14.70;99.90
7676;DHT22;3880;51.464;-2.566;2022-09-16T08:36:14;14.80;99.90
7676;DHT22;3880;51.464;-2.566;2022-09-16T08:38:42;14.90;99.90
7676;DHT22;3880;51.464;-2.566;2022-09-16T08:44:27;15.20;99.90
7676;DHT22;3880;51.464;-2.566;2022-09-16T08:47:00;15.50;99.90
7676;DHT22;3880;51.464;-2.566;2022-09-16T08:49:34;15.50;99.90
7676;DHT22;3880;51.464;-2.566;2022-09-16T08:52:07;15.80;99.90
7676;DHT22;3880;51.464;-2.566;2022-09-16T08:54:39;16.50;99.90
7676;DHT22;3880;51.464;-2.566;2022-09-16T08:57:10;17.40;99.90
7676;DHT22;3880;51.464;-2.566;2022-09-16T08:59:43;18.50;99.90
7676;DHT22;3880;51.464;-2.566;2022-09-16T09:02:39;19.80;99.90
7676;DHT22;3880;51.464;-2.566;2022-09-16T09:05:16;21.60;99.90
7676;DHT22;3880;51.464;-2.566;2022-09-16T09:08:00;23.00;99.90
7676;DHT22;3880;51.464;-2.566;2022-09-16T09:10:36;24.00;99.90
7676;DHT22;3880;51.464;-2.566;2022-09-16T09:13:26;24.00;99.90
7676;DHT22;3880;51.464;-2.566;2022-09-16T09:16:00;24.50;99.90
7676;DHT22;3880;51.464;-2.566;2022-09-16T09:18:38;25.30;99.90
7676;DHT22;3880;51.464;-2.566;2022-09-16T09:21:17;26.10;99.90
7676;DHT22;3880;51.464;-2.566;2022-09-16T09:24:13;26.80;99.30
7676;DHT22;3880;51.464;-2.566;2022-09-16T09:26:48;26.10;98.90
7676;DHT22;3880;51.464;-2.566;2022-09-16T09:29:36;24.80;99.10
7676;DHT22;3880;51.464;-2.566;2022-09-16T09:32:18;23.40;99.90
7676;DHT22;3880;51.464;-2.566;2022-09-16T09:35:01;23.80;99.90
7676;DHT22;3880;51.464;-2.566;2022-09-16T09:37:41;23.40;99.90
7676;DHT22;3880;51.464;-2.566;2022-09-16T09:40:18;24.30;99.60
7676;DHT22;3880;51.464;-2.566;2022-09-16T09:42:49;24.50;99.30
7676;DHT22;3880;51.464;-2.566;2022-09-16T09:45:21;25.60;98.70
7676;DHT22;3880;51.464;-2.566;2022-09-16T09:47:52;24.90;98.70
7676;DHT22;3880;51.464;-2.566;2022-09-16T09:50:28;25.20;98.60
7676;DHT22;3880;51.464;-2.566;2022-09-16T09:53:05;26.00;97.60
7676;DHT22;3880;51.464;-2.566;2022-09-16T09:55:34;26.90;96.40
7676;DHT22;3880;51.464;-2.566;2022-09-16T09:58:20;27.60;95.60
7676;DHT22;3880;51.464;-2.566;2022-09-16T10:00:50;27.90;94.30
7676;DHT22;3880;51.464;-2.566;2022-09-16T10:03:20;28.00;93.90
7676;DHT22;3880;51.464;-2.566;2022-09-16T10:05:49;27.90;94.20
7676;DHT22;3880;51.464;-2.566;2022-09-16T10:08:24;28.00;93.80
7676;DHT22;3880;51.464;-2.566;2022-09-16T10:10:53;27.90;94.10
7676;DHT22;3880;51.464;-2.566;2022-09-16T10:13:23;27.40;93.90
7676;DHT22;3880;51.464;-2.566;2022-09-16T10:15:52;27.40;93.70
7676;DHT22;3880;51.464;-2.566;2022-09-16T10:18:24;27.30;94.30
7676;DHT22;3880;51.464;-2.566;2022-09-16T10:21:04;27.50;93.40
7676;DHT22;3880;51.464;-2.566;2022-09-16T10:23:33;25.60;94.30
7676;DHT22;3880;51.464;-2.566;2022-09-16T10:26:05;25.20;94.60
7676;DHT22;3880;51.464;-2.566;2022-09-16T10:28:33;24.60;94.80
7676;DHT22;3880;51.464;-2.566;2022-09-16T10:31:00;24.10;95.80
7676;DHT22;3880;51.464;-2.566;2022-09-16T10:33:30;24.80;95.40
7676;DHT22;3880;51.464;-2.566;2022-09-16T10:36:01;25.10;94.90
7676;DHT22;3880;51.464;-2.566;2022-09-16T10:38:38;24.80;95.50
7676;DHT22;3880;51.464;-2.566;2022-09-16T10:41:07;25.90;94.90
7676;DHT22;3880;51.464;-2.566;2022-09-16T10:43:37;26.30;94.60
7676;DHT22;3880;51.464;-2.566;2022-09-16T10:46:05;26.30;94.20
7676;DHT22;3880;51.464;-2.566;2022-09-16T10:48:34;27.40;93.50
7676;DHT22;3880;51.464;-2.566;2022-09-16T10:51:04;28.70;92.60
7676;DHT22;3880;51.464;-2.566;2022-09-16T10:53:35;28.90;92.00
7676;DHT22;3880;51.464;-2.566;2022-09-16T10:56:04;28.00;91.90
7676;DHT22;3880;51.464;-2.566;2022-09-16T10:58:32;27.20;92.50
7676;DHT22;3880;51.464;-2.566;2022-09-16T11:01:15;27.10;92.80
7676;DHT22;3880;51.464;-2.566;2022-09-16T11:04:03;27.80;92.30
7676;DHT22;3880;51.464;-2.566;2022-09-16T11:06:47;27.90;91.60
7676;DHT22;3880;51.464;-2.566;2022-09-16T11:09:25;28.00;91.20
7676;DHT22;3880;51.464;-2.566;2022-09-16T11:12:08;26.30;91.30
7676;DHT22;3880;51.464;-2.566;2022-09-16T11:14:46;26.60;91.30
7676;DHT22;3880;51.464;-2.566;2022-09-16T11:17:33;26.50;91.30
7676;DHT22;3880;51.464;-2.566;2022-09-16T11:20:32;25.80;91.90
7676;DHT22;3880;51.464;-2.566;2022-09-16T11:23:10;25.80;92.20
7676;DHT22;3880;51.464;-2.566;2022-09-16T11:25:47;26.00;92.30
7676;DHT22;3880;51.464;-2.566;2022-09-16T11:28:51;25.00;92.60
7676;DHT22;3880;51.464;-2.566;2022-09-16T11:31:35;24.30;93.70
7676;DHT22;3880;51.464;-2.566;2022-09-16T11:34:13;24.30;92.70
7676;DHT22;3880;51.464;-2.566;2022-09-16T11:36:53;24.00;92.40
7676;DHT22;3880;51.464;-2.566;2022-09-16T11:39:34;23.80;92.60
7676;DHT22;3880;51.464;-2.566;2022-09-16T11:42:23;23.60;92.30
7676;DHT22;3880;51.464;-2.566;2022-09-16T11:45:02;23.30;91.80
7676;DHT22;3880;51.464;-2.566;2022-09-16T11:47:47;23.50;92.40
7676;DHT22;3880;51.464;-2.566;2022-09-16T11:50:38;22.70;92.70
7676;DHT22;3880;51.464;-2.566;2022-09-16T11:53:25;21.90;94.10
7676;DHT22;3880;51.464;-2.566;2022-09-16T11:55:58;21.30;95.40
7676;DHT22;3880;51.464;-2.566;2022-09-16T11:58:35;21.10;96.00
7676;DHT22;3880;51.464;-2.566;2022-09-16T12:01:08;21.10;96.70
7676;DHT22;3880;51.464;-2.566;2022-09-16T12:03:43;20.90;97.20
7676;DHT22;3880;51.464;-2.566;2022-09-16T12:06:16;20.90;97.40
7676;DHT22;3880;51.464;-2.566;2022-09-16T12:08:52;21.10;97.30
7676;DHT22;3880;51.464;-2.566;2022-09-16T12:11:25;21.10;97.50
7676;DHT22;3880;51.464;-2.566;2022-09-16T12:14:04;20.90;97.90
7676;DHT22;3880;51.464;-2.566;2022-09-16T12:16:38;20.80;98.40
7676;DHT22;3880;51.464;-2.566;2022-09-16T12:19:11;21.10;98.50
7676;DHT22;3880;51.464;-2.566;2022-09-16T12:21:45;20.90;98.20
7676;DHT22;3880;51.464;-2.566;2022-09-16T12:24:18;20.60;98.30
7676;DHT22;3880;51.464;-2.566;2022-09-16T12:26:50;20.80;98.60
7676;DHT22;3880;51.464;-2.566;2022-09-16T12:29:26;20.60;98.90
7676;DHT22;3880;51.464;-2.566;2022-09-16T12:32:00;20.70;98.90
7676;DHT22;3880;51.464;-2.566;2022-09-16T12:34:33;20.60;98.80
7676;DHT22;3880;51.464;-2.566;2022-09-16T12:37:16;21.00;99.40
7676;DHT22;3880;51.464;-2.566;2022-09-16T12:39:44;22.90;98.50
7676;DHT22;3880;51.464;-2.566;2022-09-16T12:42:49;24.80;96.50
7676;DHT22;3880;51.464;-2.566;2022-09-16T12:45:30;26.00;95.30
7676;DHT22;3880;51.464;-2.566;2022-09-16T12:48:20;27.20;94.20
7676;DHT22;3880;51.464;-2.566;2022-09-16T12:51:13;27.80;92.50
7676;DHT22;3880;51.464;-2.566;2022-09-16T12:54:02;26.70;93.50
7676;DHT22;3880;51.464;-2.566;2022-09-16T12:56:47;26.10;93.40
7676;DHT22;3880;51.464;-2.566;2022-09-16T12:59:51;25.60;94.00
7676;DHT22;3880;51.464;-2.566;2022-09-16T13:02:27;23.90;94.60
7676;DHT22;3880;51.464;-2.566;2022-09-16T13:04:59;22.90;95.20
7676;DHT22;3880;51.464;-2.566;2022-09-16T13:07:32;23.40;95.80
7676;DHT22;3880;51.464;-2.566;2022-09-16T13:10:02;24.30;95.70
7676;DHT22;3880;51.464;-2.566;2022-09-16T13:12:30;25.00;95.00
7676;DHT22;3880;51.464;-2.566;2022-09-16T13:15:02;26.40;94.90
7676;DHT22;3880;51.464;-2.566;2022-09-16T13:17:34;27.20;93.00
7676;DHT22;3880;51.464;-2.566;2022-09-16T13:20:05;28.90;92.30
7676;DHT22;3880;51.464;-2.566;2022-09-16T13:22:45;30.80;90.80
7676;DHT22;3880;51.464;-2.566;2022-09-16T13:25:20;30.70;87.10
7676;DHT22;3880;51.464;-2.566;2022-09-16T13:27:55;31.40;83.40
7676;DHT22;3880;51.464;-2.566;2022-09-16T13:30:28;31.20;83.50
7676;DHT22;3880;51.464;-2.566;2022-09-16T13:32:59;31.30;82.70
7676;DHT22;3880;51.464;-2.566;2022-09-16T13:35:38;32.20;81.30
7676;DHT22;3880;51.464;-2.566;2022-09-16T13:38:22;31.80;80.50
7676;DHT22;3880;51.464;-2.566;2022-09-16T13:40:54;29.10;81.80
7676;DHT22;3880;51.464;-2.566;2022-09-16T13:43:28;26.80;83.90
7676;DHT22;3880;51.464;-2.566;2022-09-16T13:46:05;25.20;87.40
7676;DHT22;3880;51.464;-2.566;2022-09-16T13:48:39;23.60;90.40
7676;DHT22;3880;51.464;-2.566;2022-09-16T13:51:14;22.50;92.10
7676;DHT22;3880;51.464;-2.566;2022-09-16T13:53:45;21.60;93.60
7676;DHT22;3880;51.464;-2.566;2022-09-16T13:56:30;21.40;95.20
7676;DHT22;3880;51.464;-2.566;2022-09-16T13:59:09;22.50;94.60
7676;DHT22;3880;51.464;-2.566;2022-09-16T14:01:47;23.40;94.10
7676;DHT22;3880;51.464;-2.566;2022-09-16T14:04:25;25.50;91.40
7676;DHT22;3880;51.464;-2.566;2022-09-16T14:07:06;26.40;91.30
7676;DHT22;3880;51.464;-2.566;2022-09-16T14:09:43;26.90;90.00
7676;DHT22;3880;51.464;-2.566;2022-09-16T14:12:15;27.50;90.10
7676;DHT22;3880;51.464;-2.566;2022-09-16T14:14:46;28.30;88.10
7676;DHT22;3880;51.464;-2.566;2022-09-16T14:17:16;27.90;87.00
7676;DHT22;3880;51.464;-2.566;2022-09-16T14:19:48;28.10;87.60
7676;DHT22;3880;51.464;-2.566;2022-09-16T14:22:18;27.80;88.00
7676;DHT22;3880;51.464;-2.566;2022-09-16T14:24:50;28.20;87.00
7676;DHT22;3880;51.464;-2.566;2022-09-16T14:27:19;28.50;86.50
7676;DHT22;3880;51.464;-2.566;2022-09-16T14:29:54;28.50;85.80
7676;DHT22;3880;51.464;-2.566;2022-09-16T14:32:23;27.80;86.70
7676;DHT22;3880;51.464;-2.566;2022-09-16T14:34:53;28.50;85.70
7676;DHT22;3880;51.464;-2.566;2022-09-16T14:37:24;28.40;77.60
7676;DHT22;3880;51.464;-2.566;2022-09-16T14:39:53;27.70;77.90
7676;DHT22;3880;51.464;-2.566;2022-09-16T14:42:22;28.40;79.10
7676;DHT22;3880;51.464;-2.566;2022-09-16T14:44:52;28.90;78.60
7676;DHT22;3880;51.464;-2.566;2022-09-16T14:47:23;29.00;77.40
7676;DHT22;3880;51.464;-2.566;2022-09-16T14:49:55;28.80;78.40
7676;DHT22;3880;51.464;-2.566;2022-09-16T14:52:29;28.60;78.70
7676;DHT22;3880;51.464;-2.566;2022-09-16T14:54:56;28.10;79.00
7676;DHT22;3880;51.464;-2.566;2022-09-16T14:57:24;28.40;80.10
7676;DHT22;3880;51.464;-2.566;2022-09-16T14:59:54;29.10;79.00
7676;DHT22;3880;51.464;-2.566;2022-09-16T15:02:24;29.30;79.10
7676;DHT22;3880;51.464;-2.566;2022-09-16T15:05:16;30.80;79.00
7676;DHT22;3880;51.464;-2.566;2022-09-16T15:07:44;30.60;77.50
7676;DHT22;3880;51.464;-2.566;2022-09-16T15:10:19;30.80;76.00
7676;DHT22;3880;51.464;-2.566;2022-09-16T15:12:49;30.70;76.70
7676;DHT22;3880;51.464;-2.566;2022-09-16T15:15:20;29.30;75.00
7676;DHT22;3880;51.464;-2.566;2022-09-16T15:17:52;28.90;76.70
7676;DHT22;3880;51.464;-2.566;2022-09-16T15:20:24;27.70;76.50
7676;DHT22;3880;51.464;-2.566;2022-09-16T15:22:51;27.50;77.30
7676;DHT22;3880;51.464;-2.566;2022-09-16T15:25:20;27.70;75.40
7676;DHT22;3880;51.464;-2.566;2022-09-16T15:27:48;27.10;76.50
7676;DHT22;3880;51.464;-2.566;2022-09-16T15:30:21;27.80;76.90
7676;DHT22;3880;51.464;-2.566;2022-09-16T15:32:48;28.50;76.00
7676;DHT22;3880;51.464;-2.566;2022-09-16T15:35:22;29.20;74.60
7676;DHT22;3880;51.464;-2.566;2022-09-16T15:37:50;28.20;75.80
7676;DHT22;3880;51.464;-2.566;2022-09-16T15:40:36;27.10;78.30
7676;DHT22;3880;51.464;-2.566;2022-09-16T15:43:15;27.80;76.30
7676;DHT22;3880;51.464;-2.566;2022-09-16T15:45:45;27.20;75.30
7676;DHT22;3880;51.464;-2.566;2022-09-16T15:48:22;26.80;74.90
7676;DHT22;3880;51.464;-2.566;2022-09-16T15:50:53;27.20;75.60
7676;DHT22;3880;51.464;-2.566;2022-09-16T15:53:38;27.00;76.40
7676;DHT22;3880;51.464;-2.566;2022-09-16T15:56:20;27.00;75.70
7676;DHT22;3880;51.464;-2.566;2022-09-16T15:58:49;26.70;75.60
7676;DHT22;3880;51.464;-2.566;2022-09-16T16:01:20;26.90;77.30
7676;DHT22;3880;51.464;-2.566;2022-09-16T16:04:01;28.00;76.40
7676;DHT22;3880;51.464;-2.566;2022-09-16T16:06:49;28.40;74.90
7676;DHT22;3880;51.464;-2.566;2022-09-16T16:09:44;28.10;73.10
7676;DHT22;3880;51.464;-2.566;2022-09-16T16:12:12;26.80;72.30
7676;DHT22;3880;51.464;-2.566;2022-09-16T16:14:41;26.30;72.10
7676;DHT22;3880;51.464;-2.566;2022-09-16T16:17:10;24.90;73.20
7676;DHT22;3880;51.464;-2.566;2022-09-16T16:19:39;23.90;75.20
7676;DHT22;3880;51.464;-2.566;2022-09-16T16:22:07;23.90;75.20
7676;DHT22;3880;51.464;-2.566;2022-09-16T16:24:34;24.50;76.00
7676;DHT22;3880;51.464;-2.566;2022-09-16T16:27:03;25.20;75.40
7676;DHT22;3880;51.464;-2.566;2022-09-16T16:29:32;26.10;75.00
7676;DHT22;3880;51.464;-2.566;2022-09-16T16:32:02;26.70;74.30
7676;DHT22;3880;51.464;-2.566;2022-09-16T16:34:31;26.10;74.10
7676;DHT22;3880;51.464;-2.566;2022-09-16T16:36:59;24.70;75.60
7676;DHT22;3880;51.464;-2.566;2022-09-16T16:39:27;24.30;76.10